createdAt,value
2023-03-01T00:02:37.151Z,13.15
2023-03-01T00:06:41.583Z,11.45
2023-03-01T00:10:45.173Z,15.45
2023-03-01T00:14:50.563Z,15.93
2023-03-01T00:18:54.116Z,18.08
2023-03-01T00:22:58.611Z,14.88
2023-03-01T00:27:01.869Z,19.88
2023-03-01T00:31:06.663Z,14.55
2023-03-01T00:35:10.686Z,18.50
2023-03-01T00:39:17.806Z,10.55
2023-03-01T00:43:20.914Z,15.60
2023-03-01T00:47:24.380Z,18.80
2023-03-01T00:51:29.796Z,13.27
2023-03-01T00:55:34.450Z,30.05
2023-03-01T00:59:37.885Z,16.50
2023-03-01T01:03:41.146Z,15.07
2023-03-01T01:07:44.084Z,15.07
2023-03-01T01:11:51.121Z,14.05
2023-03-01T01:15:54.264Z,21.50
2023-03-01T01:19:57.303Z,16.80
2023-03-01T01:24:00.546Z,18.92
2023-03-01T01:28:05.761Z,15.40
2023-03-01T01:32:08.774Z,25.67
2023-03-01T01:36:12.379Z,15.20
2023-03-01T01:40:15.876Z,15.50
2023-03-01T01:44:23.274Z,13.98
2023-03-01T01:48:41.591Z,20.98
2023-03-01T01:52:45.148Z,24.20
2023-03-01T01:56:53.858Z,18.58
2023-03-01T02:00:58.321Z,19.85
2023-03-01T02:05:13.257Z,19.27
2023-03-01T02:09:19.132Z,18.88
2023-03-01T02:13:22.270Z,24.17
2023-03-01T02:17:27.460Z,39.95
2023-03-01T02:21:41.370Z,26.58
2023-03-01T02:25:53.164Z,23.88
2023-03-01T02:29:57.911Z,20.08
2023-03-01T02:34:01.191Z,34.92
2023-03-01T02:38:06.178Z,25.17
2023-03-01T02:42:12.674Z,23.27
2023-03-01T02:46:20.514Z,23.40
2023-03-01T02:50:55.780Z,24.13
2023-03-01T02:55:03.400Z,31.50
2023-03-01T02:59:07.659Z,26.02
2023-03-01T03:03:15.557Z,32.50
2023-03-01T03:07:19.166Z,27.23
2023-03-01T03:11:22.396Z,31.63
2023-03-01T03:15:26.699Z,23.10
2023-03-01T03:19:32.587Z,24.55
2023-03-01T03:23:36.953Z,22.10
2023-03-01T03:27:41.155Z,26.88
2023-03-01T03:31:44.074Z,25.10
2023-03-01T03:35:51.402Z,32.47
2023-03-01T03:39:55.869Z,28.30
2023-03-01T03:43:59.322Z,26.05
2023-03-01T03:48:02.675Z,24.55
2023-03-01T03:52:14.646Z,23.27
2023-03-01T03:56:17.557Z,21.05
2023-03-01T04:00:23.160Z,31.85
2023-03-01T04:04:26.086Z,20.67
2023-03-01T04:08:31.614Z,27.75
2023-03-01T04:12:35.288Z,27.73
2023-03-01T04:16:38.936Z,21.85
2023-03-01T04:20:41.964Z,26.77
2023-03-01T04:24:46.554Z,25.75
2023-03-01T04:28:51.781Z,27.88
2023-03-01T04:32:54.694Z,25.73
2023-03-01T04:36:58.513Z,24.13
2023-03-01T04:41:04.758Z,32.45
2023-03-01T04:45:14.267Z,24.45
2023-03-01T04:49:17.495Z,27.42
2023-03-01T04:53:21.477Z,28.88
2023-03-01T04:57:27.428Z,26.00
2023-03-01T05:01:30.473Z,21.65
2023-03-01T05:05:36.566Z,26.95
2023-03-01T05:09:39.795Z,34.50
2023-03-01T05:13:44.816Z,30.88
2023-03-01T05:17:48.475Z,24.35
2023-03-01T05:22:06.677Z,31.15
2023-03-01T05:26:25.906Z,25.20
2023-03-01T05:30:32.771Z,31.08
2023-03-01T05:34:38.056Z,32.95
2023-03-01T05:38:41.261Z,30.50
2023-03-01T05:42:46.065Z,28.40
2023-03-01T05:46:51.390Z,28.38
2023-03-01T05:50:54.424Z,30.08
2023-03-01T05:54:57.987Z,40.10
2023-03-01T05:59:01.640Z,32.00
2023-03-01T06:03:06.062Z,26.02
2023-03-01T06:07:09.466Z,30.75
2023-03-01T06:11:12.768Z,33.90
2023-03-01T06:15:18.212Z,28.25
2023-03-01T06:19:23.327Z,36.30
2023-03-01T06:23:26.725Z,36.38
2023-03-01T06:27:30.636Z,27.60
2023-03-01T06:31:33.577Z,31.42
2023-03-01T06:35:38.113Z,28.00
2023-03-01T06:39:41.464Z,30.38
2023-03-01T06:43:45.719Z,31.27
2023-03-01T06:47:49.172Z,35.13
2023-03-01T06:51:54.107Z,30.77
2023-03-01T06:55:57.978Z,39.10
2023-03-01T07:00:01.294Z,32.42
2023-03-01T07:04:04.357Z,36.85
2023-03-01T07:08:09.007Z,31.15
2023-03-01T07:12:12.159Z,44.40
2023-03-01T07:16:15.582Z,33.42
2023-03-01T07:20:26.957Z,50.42
2023-03-01T07:24:31.423Z,37.78
2023-03-01T07:28:37.290Z,35.63
2023-03-01T07:32:40.536Z,30.65
2023-03-01T07:36:44.379Z,35.28
2023-03-01T07:40:49.297Z,32.05
2023-03-01T07:44:52.652Z,39.40
2023-03-01T07:48:55.632Z,34.25
2023-03-01T07:52:58.966Z,26.92
2023-03-01T07:57:03.222Z,34.70
2023-03-01T08:01:14.981Z,33.65
2023-03-01T08:05:19.706Z,29.95
2023-03-01T08:09:25.693Z,32.13
2023-03-01T08:13:31.092Z,35.00
2023-03-01T08:17:34.021Z,26.27
2023-03-01T08:21:37.571Z,30.15
2023-03-01T08:25:40.810Z,23.63
2023-03-01T08:29:45.601Z,30.20
2023-03-01T08:33:51.820Z,32.00
2023-03-01T08:37:55.427Z,38.80
2023-03-01T08:41:59.291Z,26.90
2023-03-01T08:46:04.042Z,34.20
2023-03-01T08:50:08.147Z,31.50
2023-03-01T08:54:14.339Z,35.25
2023-03-01T08:58:17.282Z,22.70
2023-03-01T09:02:21.840Z,27.88
2023-03-01T09:06:24.976Z,28.95
2023-03-01T09:10:28.409Z,31.73
2023-03-01T09:14:31.800Z,27.20
2023-03-01T09:18:37.303Z,27.02
2023-03-01T09:22:40.221Z,28.58
2023-03-01T09:26:43.475Z,27.30
2023-03-01T09:30:46.454Z,21.02
2023-03-01T09:35:09.374Z,39.30
2023-03-01T09:39:12.787Z,31.23
2023-03-01T09:43:23.522Z,27.27
2023-03-01T09:47:33.004Z,37.70
2023-03-01T09:51:39.149Z,25.20
2023-03-01T09:55:46.513Z,25.60
2023-03-01T10:00:06.006Z,29.23
2023-03-01T10:04:26.872Z,23.83
2023-03-01T10:08:37.488Z,30.00
2023-03-01T10:12:45.042Z,26.27
2023-03-01T10:16:55.084Z,24.30
2023-03-01T10:21:01.942Z,25.02
2023-03-01T10:25:06.917Z,29.77
2023-03-01T10:29:11.622Z,26.13
2023-03-01T10:33:23.302Z,22.88
2023-03-01T10:37:28.485Z,24.15
2023-03-01T10:41:33.291Z,21.15
2023-03-01T10:45:39.793Z,22.15
2023-03-01T10:49:55.355Z,23.75
2023-03-01T10:53:58.439Z,21.90
2023-03-01T10:58:22.855Z,25.83
2023-03-01T11:02:30.884Z,18.02
2023-03-01T11:06:35.500Z,17.02
2023-03-01T11:10:39.159Z,16.95
2023-03-01T11:14:49.360Z,24.17
2023-03-01T11:18:59.434Z,21.45
2023-03-01T11:23:07.783Z,19.77
2023-03-01T11:27:21.694Z,17.45
2023-03-01T11:31:28.534Z,21.17
2023-03-01T11:35:34.641Z,19.52
2023-03-01T11:40:24.113Z,17.02
2023-03-01T11:44:31.941Z,17.42
2023-03-01T11:48:52.534Z,20.15
2023-03-01T11:53:06.991Z,21.00
2023-03-01T11:57:22.588Z,20.85
2023-03-01T12:01:45.115Z,17.23
2023-03-01T12:10:28.585Z,23.02
2023-03-01T12:14:44.624Z,16.40
2023-03-01T12:19:11.326Z,19.75
2023-03-01T12:23:37.642Z,18.98
2023-03-01T12:28:13.512Z,15.30
2023-03-01T12:32:37.568Z,15.48
2023-03-01T12:36:58.700Z,13.38
2023-03-01T12:41:18.402Z,15.98
2023-03-01T12:45:41.633Z,18.42
2023-03-01T12:49:50.752Z,15.02
2023-03-01T12:53:57.421Z,25.25
2023-03-01T12:58:11.749Z,18.42
2023-03-01T13:02:24.328Z,18.05
2023-03-01T13:06:43.472Z,18.63
2023-03-01T13:10:51.979Z,18.40
2023-03-01T13:14:56.600Z,19.85
2023-03-01T13:19:11.168Z,18.65
2023-03-01T13:23:27.622Z,18.35
2023-03-01T13:27:31.832Z,20.73
2023-03-01T13:32:03.071Z,18.65
2023-03-01T13:36:09.849Z,24.48
2023-03-01T13:40:46.586Z,21.95
2023-03-01T13:44:51.634Z,19.70
2023-03-01T13:48:59.030Z,18.92
2023-03-01T13:53:05.115Z,16.98
2023-03-01T13:57:08.300Z,17.65
2023-03-01T14:01:25.678Z,25.00
2023-03-01T14:05:29.413Z,16.77
2023-03-01T14:09:37.025Z,21.15
2023-03-01T14:13:54.658Z,19.33
2023-03-01T14:18:38.817Z,22.25
2023-03-01T14:22:46.045Z,23.30
2023-03-01T14:26:51.217Z,16.52
2023-03-01T14:30:56.572Z,19.02
2023-03-01T14:35:02.885Z,22.83
2023-03-01T14:39:19.615Z,16.70
2023-03-01T14:43:27.152Z,15.63
2023-03-01T14:47:33.218Z,17.88
2023-03-01T14:51:41.863Z,18.88
2023-03-01T14:55:48.797Z,17.10
2023-03-01T14:59:54.278Z,15.13
2023-03-01T15:03:57.713Z,17.17
2023-03-01T15:08:05.102Z,17.40
2023-03-01T15:12:38.172Z,15.35
2023-03-01T15:16:44.392Z,14.95
2023-03-01T15:20:48.117Z,17.77
2023-03-01T15:24:53.505Z,19.75
2023-03-01T15:29:00.326Z,16.27
2023-03-01T15:33:22.225Z,17.48
2023-03-01T15:37:41.929Z,20.05
2023-03-01T15:41:51.142Z,19.63
2023-03-01T15:45:59.707Z,20.70
2023-03-01T15:50:04.445Z,15.30
2023-03-01T15:54:14.088Z,14.85
2023-03-01T15:58:23.492Z,15.13
2023-03-01T16:02:26.869Z,18.02
2023-03-01T16:06:30.733Z,23.88
2023-03-01T16:10:35.070Z,17.52
2023-03-01T16:14:39.434Z,14.70
2023-03-01T16:18:42.882Z,18.08
2023-03-01T16:22:47.160Z,23.80
2023-03-01T16:26:50.543Z,16.42
2023-03-01T16:30:55.032Z,14.25
2023-03-01T16:34:58.285Z,21.15
2023-03-01T16:39:04.761Z,16.67
2023-03-01T16:43:09.139Z,15.30
2023-03-01T16:47:15.694Z,14.75
2023-03-01T16:51:19.590Z,21.83
2023-03-01T16:55:23.434Z,17.30
2023-03-01T16:59:26.449Z,20.77
2023-03-01T17:03:31.463Z,18.02
2023-03-01T17:07:35.529Z,14.90
2023-03-01T17:11:38.832Z,25.83
2023-03-01T17:15:42.388Z,22.42
2023-03-01T17:20:18.181Z,18.27
2023-03-01T17:24:21.199Z,15.98
2023-03-01T17:28:25.439Z,21.13
2023-03-01T17:32:28.650Z,22.30
2023-03-01T17:36:42.347Z,16.52
2023-03-01T17:40:47.202Z,16.13
2023-03-01T17:44:51.253Z,20.58
2023-03-01T17:48:54.290Z,16.05
2023-03-01T17:52:59.427Z,20.13
2023-03-01T17:57:02.570Z,19.85
2023-03-01T18:01:11.037Z,19.08
2023-03-01T18:05:14.168Z,28.10
2023-03-01T18:09:18.997Z,20.73
2023-03-01T18:13:21.931Z,16.58
2023-03-01T18:17:27.176Z,19.60
2023-03-01T18:21:31.220Z,29.00
2023-03-01T18:25:36.376Z,20.50
2023-03-01T18:29:39.426Z,19.90
2023-03-01T18:33:43.934Z,19.45
2023-03-01T18:37:47.256Z,17.80
2023-03-01T18:41:52.290Z,16.40
2023-03-01T18:45:59.092Z,25.55
2023-03-01T18:50:02.404Z,27.35
2023-03-01T18:54:05.687Z,20.70
2023-03-01T18:58:10.553Z,27.13
2023-03-01T19:02:15.745Z,20.10
2023-03-01T19:06:20.486Z,19.13
2023-03-01T19:10:23.874Z,18.20
2023-03-01T19:14:28.796Z,24.40
2023-03-01T19:18:32.155Z,23.50
2023-03-01T19:22:35.464Z,21.98
2023-03-01T19:26:41.851Z,28.02
2023-03-01T19:30:46.530Z,21.80
2023-03-01T19:34:50.134Z,25.05
2023-03-01T19:38:53.097Z,21.50
2023-03-01T19:42:56.645Z,20.05
2023-03-01T19:47:01.662Z,24.52
2023-03-01T19:51:05.466Z,26.55
2023-03-01T19:55:10.925Z,25.30
2023-03-01T19:59:15.494Z,25.42
2023-03-01T20:03:19.825Z,23.27
2023-03-01T20:07:23.388Z,25.08
2023-03-01T20:11:26.678Z,25.58
2023-03-01T20:15:31.030Z,26.35
2023-03-01T20:19:36.297Z,25.30
2023-03-01T20:23:41.836Z,23.80
2023-03-01T20:27:47.889Z,23.48
2023-03-01T20:31:51.012Z,26.65
2023-03-01T20:35:56.567Z,33.38
2023-03-01T20:39:59.749Z,23.75
2023-03-01T20:44:04.673Z,26.38
2023-03-01T20:48:09.899Z,24.23
2023-03-01T20:52:14.556Z,25.95
2023-03-01T20:56:20.454Z,26.17
2023-03-01T21:00:23.956Z,25.40
2023-03-01T21:04:27.512Z,28.15
2023-03-01T21:08:32.860Z,32.63
2023-03-01T21:12:36.174Z,30.65
2023-03-01T21:16:39.312Z,24.60
2023-03-01T21:20:43.198Z,29.63
2023-03-01T21:24:50.168Z,21.58
2023-03-01T21:28:57.271Z,20.23
2023-03-01T21:33:00.460Z,21.05
2023-03-01T21:37:04.136Z,26.48
2023-03-01T21:41:10.384Z,29.35
2023-03-01T21:45:13.259Z,20.60
2023-03-01T21:49:16.653Z,24.35
2023-03-01T21:53:19.549Z,28.50
2023-03-01T21:57:24.476Z,27.25
2023-03-01T22:01:29.924Z,33.85
2023-03-01T22:05:32.887Z,28.00
2023-03-01T22:09:36.537Z,40.80
2023-03-01T22:13:40.953Z,27.85
2023-03-01T22:17:44.224Z,23.23
2023-03-01T22:21:50.606Z,23.02
2023-03-01T22:25:53.550Z,18.58
2023-03-01T22:29:58.443Z,25.23
2023-03-01T22:34:02.263Z,37.42
2023-03-01T22:38:05.096Z,25.90
2023-03-01T22:42:08.438Z,32.08
2023-03-01T22:46:14.532Z,22.30
2023-03-01T22:50:18.402Z,21.33
2023-03-01T22:54:22.022Z,27.02
2023-03-01T22:58:25.528Z,35.33
2023-03-01T23:02:30.303Z,27.50
2023-03-01T23:06:35.062Z,30.67
2023-03-01T23:10:42.074Z,23.90
2023-03-01T23:14:45.880Z,27.60
2023-03-01T23:18:50.483Z,27.58
2023-03-01T23:22:53.368Z,33.17
2023-03-01T23:26:57.008Z,32.03
2023-03-01T23:31:02.498Z,21.73
2023-03-01T23:35:08.950Z,27.70
2023-03-01T23:39:13.593Z,20.75
2023-03-01T23:43:16.987Z,28.33
2023-03-01T23:47:19.994Z,26.77
2023-03-01T23:51:25.910Z,23.88
2023-03-01T23:55:30.164Z,22.85
2023-03-01T23:59:33.691Z,28.65
